sensor_id;sensor_type;location;lat;lon;timestamp;P1;durP1;ratioP1;P2;durP2;ratioP2
57155;SDS011;43023;59.928;10.682;2023-04-09T00:02:16;7.03;;;2.83;;
57155;SDS011;43023;59.928;10.682;2023-04-09T00:04:42;13.55;;;3.20;;
57155;SDS011;43023;59.928;10.682;2023-04-09T00:07:08;7.78;;;3.67;;
57155;SDS011;43023;59.928;10.682;2023-04-09T00:09:34;8.50;;;2.88;;
57155;SDS011;43023;59.928;10.682;2023-04-09T00:12:00;8.07;;;3.13;;
57155;SDS011;43023;59.928;10.682;2023-04-09T00:14:27;6.75;;;2.50;;
57155;SDS011;43023;59.928;10.682;2023-04-09T00:16:53;7.80;;;2.28;;
57155;SDS011;43023;59.928;10.682;2023-04-09T00:19:20;9.88;;;3.28;;
57155;SDS011;43023;59.928;10.682;2023-04-09T00:21:46;7.47;;;2.60;;
57155;SDS011;43023;59.928;10.682;2023-04-09T00:24:12;9.98;;;2.95;;
57155;SDS011;43023;59.928;10.682;2023-04-09T00:26:38;6.15;;;2.40;;
57155;SDS011;43023;59.928;10.682;2023-04-09T00:29:04;8.40;;;2.13;;
57155;SDS011;43023;59.928;10.682;2023-04-09T00:31:31;5.90;;;2.35;;
57155;SDS011;43023;59.928;10.682;2023-04-09T00:33:57;6.40;;;2.35;;
57155;SDS011;43023;59.928;10.682;2023-04-09T00:36:23;7.82;;;2.60;;
57155;SDS011;43023;59.928;10.682;2023-04-09T00:38:50;4.82;;;1.88;;
57155;SDS011;43023;59.928;10.682;2023-04-09T00:41:17;5.60;;;2.22;;
57155;SDS011;43023;59.928;10.682;2023-04-09T00:43:44;3.97;;;1.92;;
57155;SDS011;43023;59.928;10.682;2023-04-09T00:46:10;3.80;;;1.85;;
57155;SDS011;43023;59.928;10.682;2023-04-09T00:48:36;5.55;;;2.03;;
57155;SDS011;43023;59.928;10.682;2023-04-09T00:51:02;8.02;;;1.65;;
57155;SDS011;43023;59.928;10.682;2023-04-09T00:53:28;5.72;;;2.10;;
57155;SDS011;43023;59.928;10.682;2023-04-09T00:55:55;3.70;;;1.75;;
57155;SDS011;43023;59.928;10.682;2023-04-09T00:58:21;4.75;;;2.00;;
57155;SDS011;43023;59.928;10.682;2023-04-09T01:00:47;4.07;;;1.55;;
57155;SDS011;43023;59.928;10.682;2023-04-09T01:03:14;7.15;;;2.15;;
57155;SDS011;43023;59.928;10.682;2023-04-09T01:13:33;4.20;;;1.25;;
57155;SDS011;43023;59.928;10.682;2023-04-09T01:16:00;2.10;;;1.52;;
57155;SDS011;43023;59.928;10.682;2023-04-09T01:20:55;3.67;;;1.42;;
57155;SDS011;43023;59.928;10.682;2023-04-09T01:26:16;4.75;;;1.27;;
57155;SDS011;43023;59.928;10.682;2023-04-09T01:28:44;2.92;;;1.25;;
57155;SDS011;43023;59.928;10.682;2023-04-09T01:31:16;2.40;;;1.25;;
57155;SDS011;43023;59.928;10.682;2023-04-09T01:33:43;3.75;;;1.55;;
57155;SDS011;43023;59.928;10.682;2023-04-09T01:36:09;3.80;;;1.48;;
57155;SDS011;43023;59.928;10.682;2023-04-09T01:38:36;1.98;;;0.98;;
57155;SDS011;43023;59.928;10.682;2023-04-09T01:41:05;5.75;;;1.60;;
57155;SDS011;43023;59.928;10.682;2023-04-09T01:43:32;2.97;;;0.98;;
57155;SDS011;43023;59.928;10.682;2023-04-09T01:45:59;2.17;;;1.15;;
57155;SDS011;43023;59.928;10.682;2023-04-09T01:48:26;3.67;;;1.30;;
57155;SDS011;43023;59.928;10.682;2023-04-09T01:50:53;1.98;;;0.80;;
57155;SDS011;43023;59.928;10.682;2023-04-09T01:53:20;3.42;;;1.10;;
57155;SDS011;43023;59.928;10.682;2023-04-09T01:55:46;3.10;;;0.90;;
57155;SDS011;43023;59.928;10.682;2023-04-09T01:58:12;3.25;;;1.08;;
57155;SDS011;43023;59.928;10.682;2023-04-09T02:03:24;4.10;;;1.65;;
57155;SDS011;43023;59.928;10.682;2023-04-09T02:06:13;2.15;;;1.08;;
57155;SDS011;43023;59.928;10.682;2023-04-09T02:08:38;3.95;;;1.40;;
57155;SDS011;43023;59.928;10.682;2023-04-09T02:11:07;2.17;;;1.10;;
57155;SDS011;43023;59.928;10.682;2023-04-09T02:13:34;1.67;;;0.85;;
57155;SDS011;43023;59.928;10.682;2023-04-09T02:16:02;1.83;;;0.93;;
57155;SDS011;43023;59.928;10.682;2023-04-09T02:18:29;1.48;;;0.93;;
57155;SDS011;43023;59.928;10.682;2023-04-09T02:20:56;2.47;;;1.25;;
57155;SDS011;43023;59.928;10.682;2023-04-09T02:23:23;2.95;;;1.05;;
57155;SDS011;43023;59.928;10.682;2023-04-09T02:25:49;1.02;;;0.93;;
57155;SDS011;43023;59.928;10.682;2023-04-09T02:28:15;3.60;;;0.85;;
57155;SDS011;43023;59.928;10.682;2023-04-09T02:33:19;2.35;;;1.02;;
57155;SDS011;43023;59.928;10.682;2023-04-09T02:35:45;3.53;;;1.08;;
57155;SDS011;43023;59.928;10.682;2023-04-09T02:38:12;2.05;;;1.02;;
57155;SDS011;43023;59.928;10.682;2023-04-09T02:40:39;1.08;;;0.77;;
57155;SDS011;43023;59.928;10.682;2023-04-09T02:43:06;2.20;;;0.80;;
57155;SDS011;43023;59.928;10.682;2023-04-09T02:45:32;1.52;;;0.80;;
57155;SDS011;43023;59.928;10.682;2023-04-09T02:47:58;0.70;;;0.70;;
57155;SDS011;43023;59.928;10.682;2023-04-09T02:50:24;2.50;;;0.68;;
57155;SDS011;43023;59.928;10.682;2023-04-09T02:52:50;4.78;;;1.08;;
57155;SDS011;43023;59.928;10.682;2023-04-09T02:55:17;1.02;;;0.60;;
57155;SDS011;43023;59.928;10.682;2023-04-09T02:57:43;3.20;;;0.68;;
57155;SDS011;43023;59.928;10.682;2023-04-09T03:00:09;2.58;;;0.90;;
57155;SDS011;43023;59.928;10.682;2023-04-09T03:02:36;1.60;;;0.80;;
57155;SDS011;43023;59.928;10.682;2023-04-09T03:05:02;0.88;;;0.52;;
57155;SDS011;43023;59.928;10.682;2023-04-09T03:07:28;1.75;;;0.82;;
57155;SDS011;43023;59.928;10.682;2023-04-09T03:09:54;0.70;;;0.70;;
57155;SDS011;43023;59.928;10.682;2023-04-09T03:12:20;2.03;;;0.70;;
57155;SDS011;43023;59.928;10.682;2023-04-09T03:14:46;0.95;;;0.75;;
57155;SDS011;43023;59.928;10.682;2023-04-09T03:17:12;2.60;;;0.70;;
57155;SDS011;43023;59.928;10.682;2023-04-09T03:19:38;1.25;;;0.82;;
57155;SDS011;43023;59.928;10.682;2023-04-09T03:22:04;0.95;;;0.50;;
57155;SDS011;43023;59.928;10.682;2023-04-09T03:24:31;1.23;;;0.75;;
57155;SDS011;43023;59.928;10.682;2023-04-09T03:26:57;0.65;;;0.65;;
57155;SDS011;43023;59.928;10.682;2023-04-09T03:29:23;2.47;;;0.70;;
57155;SDS011;43023;59.928;10.682;2023-04-09T03:31:50;1.27;;;0.70;;
57155;SDS011;43023;59.928;10.682;2023-04-09T03:34:16;3.78;;;0.60;;
57155;SDS011;43023;59.928;10.682;2023-04-09T03:36:42;0.50;;;0.50;;
57155;SDS011;43023;59.928;10.682;2023-04-09T03:39:08;0.50;;;0.50;;
57155;SDS011;43023;59.928;10.682;2023-04-09T03:41:34;0.57;;;0.47;;
57155;SDS011;43023;59.928;10.682;2023-04-09T03:44:00;0.52;;;0.50;;
57155;SDS011;43023;59.928;10.682;2023-04-09T03:46:26;1.55;;;0.60;;
57155;SDS011;43023;59.928;10.682;2023-04-09T03:48:52;0.75;;;0.40;;
57155;SDS011;43023;59.928;10.682;2023-04-09T03:51:18;1.02;;;0.47;;
57155;SDS011;43023;59.928;10.682;2023-04-09T03:53:44;0.55;;;0.40;;
57155;SDS011;43023;59.928;10.682;2023-04-09T03:56:10;1.25;;;0.65;;
57155;SDS011;43023;59.928;10.682;2023-04-09T03:58:36;1.17;;;0.68;;
57155;SDS011;43023;59.928;10.682;2023-04-09T04:01:03;0.38;;;0.38;;
57155;SDS011;43023;59.928;10.682;2023-04-09T04:03:29;0.90;;;0.60;;
57155;SDS011;43023;59.928;10.682;2023-04-09T04:06:01;0.93;;;0.43;;
57155;SDS011;43023;59.928;10.682;2023-04-09T04:08:28;0.70;;;0.43;;
57155;SDS011;43023;59.928;10.682;2023-04-09T04:10:54;0.30;;;0.30;;
57155;SDS011;43023;59.928;10.682;2023-04-09T04:13:20;1.05;;;0.60;;
57155;SDS011;43023;59.928;10.682;2023-04-09T04:15:46;1.85;;;0.80;;
57155;SDS011;43023;59.928;10.682;2023-04-09T04:18:12;0.98;;;0.40;;
57155;SDS011;43023;59.928;10.682;2023-04-09T04:20:39;0.40;;;0.40;;
57155;SDS011;43023;59.928;10.682;2023-04-09T04:23:05;0.32;;;0.32;;
57155;SDS011;43023;59.928;10.682;2023-04-09T04:25:31;0.70;;;0.52;;
57155;SDS011;43023;59.928;10.682;2023-04-09T04:27:57;0.60;;;0.35;;
57155;SDS011;43023;59.928;10.682;2023-04-09T04:30:24;0.32;;;0.32;;
57155;SDS011;43023;59.928;10.682;2023-04-09T04:32:50;0.55;;;0.55;;
57155;SDS011;43023;59.928;10.682;2023-04-09T04:35:16;0.70;;;0.50;;
57155;SDS011;43023;59.928;10.682;2023-04-09T04:37:42;1.98;;;0.63;;
57155;SDS011;43023;59.928;10.682;2023-04-09T04:40:08;0.60;;;0.60;;
57155;SDS011;43023;59.928;10.682;2023-04-09T04:42:34;0.30;;;0.30;;
57155;SDS011;43023;59.928;10.682;2023-04-09T04:45:00;0.90;;;0.35;;
57155;SDS011;43023;59.928;10.682;2023-04-09T04:47:26;1.13;;;0.45;;
57155;SDS011;43023;59.928;10.682;2023-04-09T04:49:52;0.65;;;0.45;;
57155;SDS011;43023;59.928;10.682;2023-04-09T04:52:19;0.98;;;0.43;;
57155;SDS011;43023;59.928;10.682;2023-04-09T04:54:45;1.38;;;0.65;;
57155;SDS011;43023;59.928;10.682;2023-04-09T04:57:11;0.80;;;0.40;;
57155;SDS011;43023;59.928;10.682;2023-04-09T04:59:37;0.30;;;0.25;;
57155;SDS011;43023;59.928;10.682;2023-04-09T05:02:06;0.40;;;0.40;;
57155;SDS011;43023;59.928;10.682;2023-04-09T05:04:34;0.65;;;0.47;;
57155;SDS011;43023;59.928;10.682;2023-04-09T05:07:00;1.10;;;0.43;;
57155;SDS011;43023;59.928;10.682;2023-04-09T05:09:26;0.68;;;0.50;;
57155;SDS011;43023;59.928;10.682;2023-04-09T05:11:52;0.30;;;0.30;;
57155;SDS011;43023;59.928;10.682;2023-04-09T05:14:18;1.48;;;0.57;;
57155;SDS011;43023;59.928;10.682;2023-04-09T05:16:48;0.60;;;0.43;;
57155;SDS011;43023;59.928;10.682;2023-04-09T05:19:14;0.40;;;0.40;;
57155;SDS011;43023;59.928;10.682;2023-04-09T05:21:40;0.30;;;0.28;;
57155;SDS011;43023;59.928;10.682;2023-04-09T05:24:06;0.50;;;0.50;;
57155;SDS011;43023;59.928;10.682;2023-04-09T05:26:32;1.00;;;0.80;;
57155;SDS011;43023;59.928;10.682;2023-04-09T05:28:58;0.40;;;0.40;;
57155;SDS011;43023;59.928;10.682;2023-04-09T05:31:24;0.40;;;0.40;;
57155;SDS011;43023;59.928;10.682;2023-04-09T05:33:50;0.47;;;0.47;;
57155;SDS011;43023;59.928;10.682;2023-04-09T05:36:17;2.28;;;0.70;;
57155;SDS011;43023;59.928;10.682;2023-04-09T05:38:43;0.82;;;0.38;;
57155;SDS011;43023;59.928;10.682;2023-04-09T05:41:10;0.38;;;0.30;;
57155;SDS011;43023;59.928;10.682;2023-04-09T05:43:36;0.40;;;0.40;;
57155;SDS011;43023;59.928;10.682;2023-04-09T05:46:03;1.80;;;0.45;;
57155;SDS011;43023;59.928;10.682;2023-04-09T05:48:29;0.30;;;0.30;;
57155;SDS011;43023;59.928;10.682;2023-04-09T05:50:55;0.32;;;0.32;;
57155;SDS011;43023;59.928;10.682;2023-04-09T05:53:22;0.40;;;0.30;;
57155;SDS011;43023;59.928;10.682;2023-04-09T05:55:48;0.52;;;0.52;;
57155;SDS011;43023;59.928;10.682;2023-04-09T05:58:14;0.45;;;0.38;;
57155;SDS011;43023;59.928;10.682;2023-04-09T06:00:41;0.40;;;0.40;;
57155;SDS011;43023;59.928;10.682;2023-04-09T06:03:07;0.30;;;0.30;;
57155;SDS011;43023;59.928;10.682;2023-04-09T06:05:33;0.77;;;0.40;;
57155;SDS011;43023;59.928;10.682;2023-04-09T06:07:59;0.30;;;0.30;;
57155;SDS011;43023;59.928;10.682;2023-04-09T06:10:26;0.77;;;0.32;;
57155;SDS011;43023;59.928;10.682;2023-04-09T06:12:52;1.33;;;0.50;;
57155;SDS011;43023;59.928;10.682;2023-04-09T06:15:18;0.40;;;0.40;;
57155;SDS011;43023;59.928;10.682;2023-04-09T06:17:45;0.50;;;0.40;;
57155;SDS011;43023;59.928;10.682;2023-04-09T06:20:11;0.30;;;0.30;;
57155;SDS011;43023;59.928;10.682;2023-04-09T06:22:37;0.47;;;0.47;;
57155;SDS011;43023;59.928;10.682;2023-04-09T06:25:03;0.60;;;0.32;;
57155;SDS011;43023;59.928;10.682;2023-04-09T06:27:29;0.65;;;0.47;;
57155;SDS011;43023;59.928;10.682;2023-04-09T06:29:55;0.80;;;0.73;;
57155;SDS011;43023;59.928;10.682;2023-04-09T06:32:21;0.38;;;0.32;;
57155;SDS011;43023;59.928;10.682;2023-04-09T06:34:47;0.55;;;0.40;;
57155;SDS011;43023;59.928;10.682;2023-04-09T06:37:14;0.85;;;0.32;;
57155;SDS011;43023;59.928;10.682;2023-04-09T06:39:40;0.30;;;0.30;;
57155;SDS011;43023;59.928;10.682;2023-04-09T06:42:06;0.40;;;0.40;;
57155;SDS011;43023;59.928;10.682;2023-04-09T06:44:32;0.47;;;0.47;;
57155;SDS011;43023;59.928;10.682;2023-04-09T06:46:59;1.50;;;0.50;;
57155;SDS011;43023;59.928;10.682;2023-04-09T06:49:26;1.00;;;0.55;;
57155;SDS011;43023;59.928;10.682;2023-04-09T06:51:52;1.10;;;0.50;;
57155;SDS011;43023;59.928;10.682;2023-04-09T06:54:18;0.60;;;0.60;;
57155;SDS011;43023;59.928;10.682;2023-04-09T06:56:45;0.70;;;0.47;;
57155;SDS011;43023;59.928;10.682;2023-04-09T06:59:11;1.83;;;0.60;;
57155;SDS011;43023;59.928;10.682;2023-04-09T07:01:37;1.40;;;0.70;;
57155;SDS011;43023;59.928;10.682;2023-04-09T07:04:04;0.75;;;0.75;;
57155;SDS011;43023;59.928;10.682;2023-04-09T07:06:30;1.27;;;0.50;;
57155;SDS011;43023;59.928;10.682;2023-04-09T07:08:56;0.30;;;0.30;;
57155;SDS011;43023;59.928;10.682;2023-04-09T07:11:22;0.52;;;0.43;;
57155;SDS011;43023;59.928;10.682;2023-04-09T07:13:49;0.77;;;0.60;;
57155;SDS011;43023;59.928;10.682;2023-04-09T07:16:15;0.45;;;0.40;;
57155;SDS011;43023;59.928;10.682;2023-04-09T07:18:41;0.50;;;0.50;;
57155;SDS011;43023;59.928;10.682;2023-04-09T07:21:07;1.55;;;0.50;;
57155;SDS011;43023;59.928;10.682;2023-04-09T07:23:34;0.55;;;0.40;;
57155;SDS011;43023;59.928;10.682;2023-04-09T07:26:01;0.50;;;0.50;;
57155;SDS011;43023;59.928;10.682;2023-04-09T07:28:27;0.73;;;0.43;;
57155;SDS011;43023;59.928;10.682;2023-04-09T07:30:53;0.40;;;0.40;;
57155;SDS011;43023;59.928;10.682;2023-04-09T07:33:19;0.40;;;0.40;;
57155;SDS011;43023;59.928;10.682;2023-04-09T07:35:45;0.60;;;0.40;;
57155;SDS011;43023;59.928;10.682;2023-04-09T07:38:11;2.33;;;0.47;;
57155;SDS011;43023;59.928;10.682;2023-04-09T07:40:37;0.30;;;0.30;;
57155;SDS011;43023;59.928;10.682;2023-04-09T07:43:03;0.52;;;0.38;;
57155;SDS011;43023;59.928;10.682;2023-04-09T07:45:30;0.68;;;0.40;;
57155;SDS011;43023;59.928;10.682;2023-04-09T07:47:56;0.63;;;0.45;;
57155;SDS011;43023;59.928;10.682;2023-04-09T07:50:22;0.50;;;0.50;;
57155;SDS011;43023;59.928;10.682;2023-04-09T07:52:48;0.68;;;0.60;;
57155;SDS011;43023;59.928;10.682;2023-04-09T07:55:15;0.50;;;0.43;;
57155;SDS011;43023;59.928;10.682;2023-04-09T07:57:41;0.90;;;0.38;;
57155;SDS011;43023;59.928;10.682;2023-04-09T08:00:09;0.40;;;0.40;;
57155;SDS011;43023;59.928;10.682;2023-04-09T08:02:36;0.35;;;0.22;;
57155;SDS011;43023;59.928;10.682;2023-04-09T08:05:02;0.43;;;0.30;;
57155;SDS011;43023;59.928;10.682;2023-04-09T08:07:28;1.75;;;0.43;;
57155;SDS011;43023;59.928;10.682;2023-04-09T08:09:54;0.73;;;0.40;;
57155;SDS011;43023;59.928;10.682;2023-04-09T08:12:20;2.65;;;0.65;;
57155;SDS011;43023;59.928;10.682;2023-04-09T08:14:46;1.25;;;0.52;;
57155;SDS011;43023;59.928;10.682;2023-04-09T08:17:12;0.50;;;0.50;;
57155;SDS011;43023;59.928;10.682;2023-04-09T08:19:38;0.82;;;0.50;;
57155;SDS011;43023;59.928;10.682;2023-04-09T08:22:05;0.75;;;0.45;;
57155;SDS011;43023;59.928;10.682;2023-04-09T08:24:31;1.35;;;0.60;;
57155;SDS011;43023;59.928;10.682;2023-04-09T08:26:57;9.77;;;2.58;;
57155;SDS011;43023;59.928;10.682;2023-04-09T08:29:23;4.28;;;2.10;;
57155;SDS011;43023;59.928;10.682;2023-04-09T08:31:49;6.13;;;2.53;;
57155;SDS011;43023;59.928;10.682;2023-04-09T08:34:15;6.20;;;2.05;;
57155;SDS011;43023;59.928;10.682;2023-04-09T08:36:45;4.50;;;2.08;;
57155;SDS011;43023;59.928;10.682;2023-04-09T08:39:11;5.47;;;1.98;;
57155;SDS011;43023;59.928;10.682;2023-04-09T08:41:39;3.45;;;1.98;;
57155;SDS011;43023;59.928;10.682;2023-04-09T08:44:10;8.68;;;2.50;;
57155;SDS011;43023;59.928;10.682;2023-04-09T08:46:36;5.75;;;1.90;;
57155;SDS011;43023;59.928;10.682;2023-04-09T08:49:08;4.93;;;2.00;;
57155;SDS011;43023;59.928;10.682;2023-04-09T08:51:37;3.78;;;1.70;;
57155;SDS011;43023;59.928;10.682;2023-04-09T08:54:10;6.00;;;1.35;;
57155;SDS011;43023;59.928;10.682;2023-04-09T08:56:39;7.07;;;2.03;;
57155;SDS011;43023;59.928;10.682;2023-04-09T08:59:05;6.13;;;1.60;;
57155;SDS011;43023;59.928;10.682;2023-04-09T09:01:31;3.33;;;1.33;;
57155;SDS011;43023;59.928;10.682;2023-04-09T09:04:07;7.13;;;1.88;;
57155;SDS011;43023;59.928;10.682;2023-04-09T09:06:34;8.98;;;2.80;;
57155;SDS011;43023;59.928;10.682;2023-04-09T09:09:01;10.00;;;2.55;;
57155;SDS011;43023;59.928;10.682;2023-04-09T09:11:27;5.10;;;2.22;;
57155;SDS011;43023;59.928;10.682;2023-04-09T09:14:04;6.93;;;2.25;;
57155;SDS011;43023;59.928;10.682;2023-04-09T09:16:30;6.40;;;2.20;;
57155;SDS011;43023;59.928;10.682;2023-04-09T09:18:58;9.93;;;2.15;;
57155;SDS011;43023;59.928;10.682;2023-04-09T09:21:25;5.65;;;2.38;;
57155;SDS011;43023;59.928;10.682;2023-04-09T09:23:52;8.77;;;3.03;;
57155;SDS011;43023;59.928;10.682;2023-04-09T09:26:28;10.45;;;3.17;;
57155;SDS011;43023;59.928;10.682;2023-04-09T09:28:55;6.95;;;2.42;;
57155;SDS011;43023;59.928;10.682;2023-04-09T09:31:24;8.52;;;2.47;;
57155;SDS011;43023;59.928;10.682;2023-04-09T09:33:50;8.35;;;2.30;;
57155;SDS011;43023;59.928;10.682;2023-04-09T09:36:32;5.30;;;2.15;;
57155;SDS011;43023;59.928;10.682;2023-04-09T09:38:59;2.95;;;1.50;;
57155;SDS011;43023;59.928;10.682;2023-04-09T09:41:27;6.05;;;2.08;;
57155;SDS011;43023;59.928;10.682;2023-04-09T09:43:54;5.90;;;1.60;;
57155;SDS011;43023;59.928;10.682;2023-04-09T09:46:21;8.27;;;2.50;;
57155;SDS011;43023;59.928;10.682;2023-04-09T09:48:47;13.77;;;2.25;;
57155;SDS011;43023;59.928;10.682;2023-04-09T09:51:13;8.63;;;1.50;;
57155;SDS011;43023;59.928;10.682;2023-04-09T09:53:41;6.18;;;1.73;;
57155;SDS011;43023;59.928;10.682;2023-04-09T09:56:13;7.07;;;1.70;;
57155;SDS011;43023;59.928;10.682;2023-04-09T09:58:44;3.05;;;1.42;;
57155;SDS011;43023;59.928;10.682;2023-04-09T10:01:15;6.75;;;1.70;;
57155;SDS011;43023;59.928;10.682;2023-04-09T10:03:42;7.45;;;1.33;;
57155;SDS011;43023;59.928;10.682;2023-04-09T10:06:10;3.60;;;0.82;;
57155;SDS011;43023;59.928;10.682;2023-04-09T10:08:37;2.33;;;0.98;;
57155;SDS011;43023;59.928;10.682;2023-04-09T10:11:05;3.55;;;1.10;;
57155;SDS011;43023;59.928;10.682;2023-04-09T10:13:39;6.47;;;1.00;;
57155;SDS011;43023;59.928;10.682;2023-04-09T10:16:06;1.67;;;1.13;;
57155;SDS011;43023;59.928;10.682;2023-04-09T10:18:33;6.35;;;1.35;;
57155;SDS011;43023;59.928;10.682;2023-04-09T10:21:08;7.10;;;1.55;;
57155;SDS011;43023;59.928;10.682;2023-04-09T10:26:03;6.25;;;1.65;;
57155;SDS011;43023;59.928;10.682;2023-04-09T10:28:30;5.28;;;1.25;;
57155;SDS011;43023;59.928;10.682;2023-04-09T10:30:56;2.67;;;1.20;;
57155;SDS011;43023;59.928;10.682;2023-04-09T10:33:23;2.03;;;1.10;;
57155;SDS011;43023;59.928;10.682;2023-04-09T10:35:54;2.65;;;0.90;;
57155;SDS011;43023;59.928;10.682;2023-04-09T10:38:44;1.23;;;0.70;;
57155;SDS011;43023;59.928;10.682;2023-04-09T10:43:36;4.15;;;1.33;;
57155;SDS011;43023;59.928;10.682;2023-04-09T10:46:03;4.20;;;1.35;;
57155;SDS011;43023;59.928;10.682;2023-04-09T10:48:31;7.65;;;1.15;;
57155;SDS011;43023;59.928;10.682;2023-04-09T10:50:58;2.97;;;1.02;;
57155;SDS011;43023;59.928;10.682;2023-04-09T10:53:24;2.22;;;0.90;;
57155;SDS011;43023;59.928;10.682;2023-04-09T10:55:52;3.30;;;1.00;;
57155;SDS011;43023;59.928;10.682;2023-04-09T10:58:18;2.58;;;1.33;;
57155;SDS011;43023;59.928;10.682;2023-04-09T11:00:45;5.57;;;1.85;;
57155;SDS011;43023;59.928;10.682;2023-04-09T11:03:21;8.27;;;1.33;;
57155;SDS011;43023;59.928;10.682;2023-04-09T11:05:57;5.05;;;1.00;;
57155;SDS011;43023;59.928;10.682;2023-04-09T11:08:26;1.77;;;0.80;;
57155;SDS011;43023;59.928;10.682;2023-04-09T11:10:52;9.15;;;1.35;;
57155;SDS011;43023;59.928;10.682;2023-04-09T11:13:22;5.15;;;0.80;;
57155;SDS011;43023;59.928;10.682;2023-04-09T11:15:48;5.75;;;1.40;;
57155;SDS011;43023;59.928;10.682;2023-04-09T11:18:18;7.93;;;1.17;;
57155;SDS011;43023;59.928;10.682;2023-04-09T11:20:45;6.45;;;1.23;;
57155;SDS011;43023;59.928;10.682;2023-04-09T11:23:11;2.83;;;0.65;;
57155;SDS011;43023;59.928;10.682;2023-04-09T11:25:37;0.82;;;0.60;;
57155;SDS011;43023;59.928;10.682;2023-04-09T11:28:04;3.38;;;0.85;;
57155;SDS011;43023;59.928;10.682;2023-04-09T11:30:30;4.00;;;1.05;;
57155;SDS011;43023;59.928;10.682;2023-04-09T11:32:58;5.88;;;0.70;;
57155;SDS011;43023;59.928;10.682;2023-04-09T11:35:24;9.10;;;1.45;;
57155;SDS011;43023;59.928;10.682;2023-04-09T11:37:50;3.60;;;0.88;;
57155;SDS011;43023;59.928;10.682;2023-04-09T11:42:44;10.98;;;1.20;;
57155;SDS011;43023;59.928;10.682;2023-04-09T11:45:10;2.90;;;0.90;;
57155;SDS011;43023;59.928;10.682;2023-04-09T11:47:39;5.68;;;1.20;;
57155;SDS011;43023;59.928;10.682;2023-04-09T11:50:09;5.50;;;0.93;;
57155;SDS011;43023;59.928;10.682;2023-04-09T11:52:35;7.63;;;1.42;;
57155;SDS011;43023;59.928;10.682;2023-04-09T11:55:05;5.45;;;0.77;;
57155;SDS011;43023;59.928;10.682;2023-04-09T12:00:08;8.85;;;1.20;;
57155;SDS011;43023;59.928;10.682;2023-04-09T12:02:38;7.50;;;0.93;;
57155;SDS011;43023;59.928;10.682;2023-04-09T12:05:05;6.25;;;1.17;;
57155;SDS011;43023;59.928;10.682;2023-04-09T12:07:31;5.43;;;0.82;;
57155;SDS011;43023;59.928;10.682;2023-04-09T12:10:02;2.72;;;0.80;;
57155;SDS011;43023;59.928;10.682;2023-04-09T12:12:28;4.03;;;0.90;;
57155;SDS011;43023;59.928;10.682;2023-04-09T12:14:55;2.15;;;0.73;;
57155;SDS011;43023;59.928;10.682;2023-04-09T12:17:23;7.15;;;1.15;;
57155;SDS011;43023;59.928;10.682;2023-04-09T12:19:49;4.45;;;0.82;;
57155;SDS011;43023;59.928;10.682;2023-04-09T12:22:15;8.52;;;0.82;;
57155;SDS011;43023;59.928;10.682;2023-04-09T12:24:41;8.80;;;1.02;;
57155;SDS011;43023;59.928;10.682;2023-04-09T12:27:08;2.25;;;1.02;;
57155;SDS011;43023;59.928;10.682;2023-04-09T12:29:34;6.03;;;0.98;;
57155;SDS011;43023;59.928;10.682;2023-04-09T12:32:01;6.50;;;1.13;;
57155;SDS011;43023;59.928;10.682;2023-04-09T12:34:27;4.65;;;1.23;;
57155;SDS011;43023;59.928;10.682;2023-04-09T12:36:53;5.43;;;0.88;;
57155;SDS011;43023;59.928;10.682;2023-04-09T12:39:19;13.30;;;1.55;;
57155;SDS011;43023;59.928;10.682;2023-04-09T12:41:45;8.55;;;1.35;;
57155;SDS011;43023;59.928;10.682;2023-04-09T12:44:11;8.68;;;1.48;;
57155;SDS011;43023;59.928;10.682;2023-04-09T12:46:37;5.55;;;1.00;;
57155;SDS011;43023;59.928;10.682;2023-04-09T12:49:03;4.15;;;1.20;;
57155;SDS011;43023;59.928;10.682;2023-04-09T12:51:30;5.60;;;1.13;;
57155;SDS011;43023;59.928;10.682;2023-04-09T12:53:56;4.93;;;0.90;;
57155;SDS011;43023;59.928;10.682;2023-04-09T12:56:22;12.52;;;1.45;;
57155;SDS011;43023;59.928;10.682;2023-04-09T12:58:48;6.80;;;1.10;;
57155;SDS011;43023;59.928;10.682;2023-04-09T13:01:15;2.83;;;0.80;;
57155;SDS011;43023;59.928;10.682;2023-04-09T13:03:42;2.40;;;0.93;;
57155;SDS011;43023;59.928;10.682;2023-04-09T13:06:08;2.45;;;0.90;;
57155;SDS011;43023;59.928;10.682;2023-04-09T13:08:34;8.90;;;0.88;;
57155;SDS011;43023;59.928;10.682;2023-04-09T13:11:00;1.20;;;0.90;;
57155;SDS011;43023;59.928;10.682;2023-04-09T13:13:26;3.42;;;0.90;;
57155;SDS011;43023;59.928;10.682;2023-04-09T13:15:52;3.42;;;1.02;;
57155;SDS011;43023;59.928;10.682;2023-04-09T13:18:18;2.67;;;1.00;;
57155;SDS011;43023;59.928;10.682;2023-04-09T13:20:44;3.40;;;0.75;;
57155;SDS011;43023;59.928;10.682;2023-04-09T13:23:11;2.10;;;0.77;;
57155;SDS011;43023;59.928;10.682;2023-04-09T13:25:37;4.10;;;0.95;;
57155;SDS011;43023;59.928;10.682;2023-04-09T13:28:03;1.75;;;0.70;;
57155;SDS011;43023;59.928;10.682;2023-04-09T13:30:29;1.85;;;0.45;;
57155;SDS011;43023;59.928;10.682;2023-04-09T13:32:55;3.83;;;0.80;;
57155;SDS011;43023;59.928;10.682;2023-04-09T13:35:21;4.30;;;0.95;;
57155;SDS011;43023;59.928;10.682;2023-04-09T13:37:47;1.33;;;0.40;;
57155;SDS011;43023;59.928;10.682;2023-04-09T13:40:13;0.60;;;0.50;;
57155;SDS011;43023;59.928;10.682;2023-04-09T13:42:40;3.72;;;0.60;;
57155;SDS011;43023;59.928;10.682;2023-04-09T13:45:06;0.68;;;0.50;;
57155;SDS011;43023;59.928;10.682;2023-04-09T13:47:33;2.72;;;0.50;;
57155;SDS011;43023;59.928;10.682;2023-04-09T13:49:59;1.15;;;0.50;;
57155;SDS011;43023;59.928;10.682;2023-04-09T13:52:25;1.95;;;0.60;;
57155;SDS011;43023;59.928;10.682;2023-04-09T13:54:51;1.50;;;0.65;;
57155;SDS011;43023;59.928;10.682;2023-04-09T13:57:18;1.77;;;0.57;;
57155;SDS011;43023;59.928;10.682;2023-04-09T13:59:44;1.83;;;0.68;;
57155;SDS011;43023;59.928;10.682;2023-04-09T14:02:10;1.38;;;0.50;;
57155;SDS011;43023;59.928;10.682;2023-04-09T14:04:36;1.10;;;0.70;;
57155;SDS011;43023;59.928;10.682;2023-04-09T14:07:02;2.50;;;0.70;;
57155;SDS011;43023;59.928;10.682;2023-04-09T14:09:28;1.80;;;0.40;;
57155;SDS011;43023;59.928;10.682;2023-04-09T14:11:55;1.25;;;0.45;;
57155;SDS011;43023;59.928;10.682;2023-04-09T14:14:21;4.28;;;0.80;;
57155;SDS011;43023;59.928;10.682;2023-04-09T14:16:47;6.22;;;1.00;;
57155;SDS011;43023;59.928;10.682;2023-04-09T14:19:14;5.07;;;0.70;;
57155;SDS011;43023;59.928;10.682;2023-04-09T14:21:41;2.38;;;0.80;;
57155;SDS011;43023;59.928;10.682;2023-04-09T14:24:07;2.40;;;0.60;;
57155;SDS011;43023;59.928;10.682;2023-04-09T14:26:33;0.98;;;0.50;;
57155;SDS011;43023;59.928;10.682;2023-04-09T14:28:59;3.50;;;0.65;;
57155;SDS011;43023;59.928;10.682;2023-04-09T14:31:25;1.20;;;0.35;;
57155;SDS011;43023;59.928;10.682;2023-04-09T14:33:51;3.83;;;0.63;;
57155;SDS011;43023;59.928;10.682;2023-04-09T14:36:17;0.85;;;0.45;;
57155;SDS011;43023;59.928;10.682;2023-04-09T14:38:43;2.42;;;0.63;;
57155;SDS011;43023;59.928;10.682;2023-04-09T14:41:10;4.65;;;0.57;;
57155;SDS011;43023;59.928;10.682;2023-04-09T14:43:36;0.95;;;0.43;;
57155;SDS011;43023;59.928;10.682;2023-04-09T14:46:03;3.45;;;0.57;;
57155;SDS011;43023;59.928;10.682;2023-04-09T14:48:31;2.33;;;0.50;;
57155;SDS011;43023;59.928;10.682;2023-04-09T14:50:57;1.10;;;0.70;;
57155;SDS011;43023;59.928;10.682;2023-04-09T14:53:23;1.25;;;0.40;;
57155;SDS011;43023;59.928;10.682;2023-04-09T14:55:49;1.75;;;0.65;;
57155;SDS011;43023;59.928;10.682;2023-04-09T14:58:15;2.78;;;0.88;;
57155;SDS011;43023;59.928;10.682;2023-04-09T15:00:41;0.95;;;0.73;;